createdAt,value
2023-03-31T00:00:37.215Z,78.32
2023-03-31T00:07:14.614Z,78.23
2023-03-31T00:14:07.195Z,78.50
2023-03-31T00:20:56.847Z,78.67
2023-03-31T00:28:06.346Z,78.50
2023-03-31T00:35:05.382Z,78.55
2023-03-31T00:41:49.291Z,78.74
2023-03-31T00:48:20.820Z,78.83
2023-03-31T00:55:25.470Z,78.73
2023-03-31T01:02:20.238Z,78.77
2023-03-31T01:08:44.737Z,78.74
2023-03-31T01:15:14.293Z,78.85
2023-03-31T01:22:11.603Z,78.67
2023-03-31T01:29:05.367Z,78.80
2023-03-31T01:35:29.365Z,78.74
2023-03-31T01:42:10.726Z,78.69
2023-03-31T01:49:01.868Z,78.80
2023-03-31T01:56:01.175Z,78.85
2023-03-31T02:02:54.211Z,79.00
2023-03-31T02:09:42.384Z,78.99
2023-03-31T02:15:57.340Z,79.01
2023-03-31T02:22:05.238Z,78.87
2023-03-31T02:29:08.260Z,78.73
2023-03-31T02:36:13.030Z,78.79
2023-03-31T02:43:04.591Z,78.44
2023-03-31T02:50:04.537Z,78.42
2023-03-31T02:57:23.135Z,78.52
2023-03-31T03:03:40.799Z,78.61
2023-03-31T03:10:32.617Z,78.68
2023-03-31T03:16:48.505Z,78.50
2023-03-31T03:23:29.536Z,78.48
2023-03-31T03:30:32.519Z,78.33
2023-03-31T03:37:38.583Z,78.28
2023-03-31T03:44:31.339Z,78.32
2023-03-31T03:51:27.456Z,78.41
2023-03-31T03:58:29.317Z,78.32
2023-03-31T04:05:22.936Z,78.46
2023-03-31T04:12:25.238Z,78.52
2023-03-31T04:18:28.155Z,78.75
2023-03-31T04:24:14.911Z,78.90
2023-03-31T04:29:47.055Z,79.22
2023-03-31T04:36:01.691Z,79.32
2023-03-31T04:42:29.623Z,79.52
2023-03-31T04:48:44.875Z,79.62
2023-03-31T04:55:42.132Z,79.81
2023-03-31T05:02:00.862Z,79.88
2023-03-31T05:08:26.717Z,80.63
2023-03-31T05:14:20.948Z,80.24
2023-03-31T05:20:46.586Z,79.28
2023-03-31T05:27:02.667Z,78.05
2023-03-31T05:33:40.771Z,76.46
2023-03-31T05:40:06.541Z,75.77
2023-03-31T05:45:54.887Z,73.80
2023-03-31T05:52:51.109Z,71.40
2023-03-31T05:58:30.556Z,70.35
2023-03-31T06:03:41.386Z,69.07
2023-03-31T06:09:31.696Z,67.21
2023-03-31T06:15:47.901Z,67.03
2023-03-31T06:21:41.890Z,65.51
2023-03-31T06:27:46.512Z,66.13
2023-03-31T06:33:58.422Z,63.73
2023-03-31T06:39:50.291Z,60.35
2023-03-31T06:45:14.819Z,60.16
2023-03-31T06:51:19.850Z,57.47
2023-03-31T06:57:36.516Z,55.31
2023-03-31T07:03:32.748Z,55.11
2023-03-31T07:09:23.877Z,54.63
2023-03-31T07:14:45.865Z,54.03
2023-03-31T07:20:44.601Z,53.27
2023-03-31T07:27:14.340Z,53.46
2023-03-31T07:33:40.597Z,54.28
2023-03-31T07:40:10.546Z,55.71
2023-03-31T07:45:46.065Z,57.90
2023-03-31T07:52:08.824Z,59.15
2023-03-31T07:59:04.041Z,60.08
2023-03-31T08:05:45.880Z,60.88
2023-03-31T08:11:23.675Z,61.39
2023-03-31T08:17:48.291Z,60.51
2023-03-31T08:24:26.824Z,60.07
2023-03-31T08:31:29.451Z,54.93
2023-03-31T08:37:53.106Z,53.88
2023-03-31T08:44:02.127Z,52.21
2023-03-31T08:50:51.767Z,52.17
2023-03-31T08:57:52.624Z,52.00
2023-03-31T09:03:38.574Z,51.24
2023-03-31T09:10:06.211Z,51.51
2023-03-31T09:16:57.101Z,51.77
2023-03-31T09:23:41.604Z,52.59
2023-03-31T09:30:39.941Z,53.40
2023-03-31T09:36:58.937Z,53.79
2023-03-31T09:43:44.927Z,55.09
2023-03-31T09:50:28.459Z,56.19
2023-03-31T09:56:52.876Z,57.18
2023-03-31T10:03:03.287Z,56.65
2023-03-31T10:09:26.646Z,55.89
2023-03-31T10:16:10.159Z,54.89
2023-03-31T10:22:59.324Z,55.48
2023-03-31T10:29:08.718Z,57.37
2023-03-31T10:35:46.213Z,58.08
2023-03-31T10:41:42.122Z,57.91
2023-03-31T10:47:52.502Z,57.46
2023-03-31T10:54:03.978Z,57.50
2023-03-31T11:00:24.560Z,58.41
2023-03-31T11:06:41.654Z,59.06
2023-03-31T11:13:25.723Z,59.21
2023-03-31T11:19:22.922Z,59.52
2023-03-31T11:26:31.235Z,59.57
2023-03-31T11:32:31.344Z,59.76
2023-03-31T11:39:15.914Z,59.60
2023-03-31T11:46:11.551Z,59.26
2023-03-31T11:53:16.927Z,60.26
2023-03-31T11:59:28.077Z,57.18
2023-03-31T12:06:30.176Z,55.61
2023-03-31T12:13:23.982Z,53.85
2023-03-31T12:20:14.219Z,51.46
2023-03-31T12:27:14.508Z,46.86
2023-03-31T12:32:50.699Z,44.15
2023-03-31T12:39:27.315Z,44.17
2023-03-31T12:44:59.612Z,45.71
2023-03-31T12:51:21.176Z,47.13
2023-03-31T12:57:34.035Z,48.52
2023-03-31T13:03:46.604Z,50.80
2023-03-31T13:09:55.540Z,52.22
2023-03-31T13:16:27.799Z,56.33
2023-03-31T13:23:05.385Z,57.95
2023-03-31T13:30:17.957Z,60.87
2023-03-31T13:37:06.429Z,64.72
2023-03-31T13:44:13.463Z,68.25
2023-03-31T13:50:38.797Z,69.37
2023-03-31T13:56:34.849Z,70.22
2023-03-31T14:02:27.633Z,71.36
2023-03-31T14:07:40.465Z,72.19
2023-03-31T14:12:42.930Z,73.33
2023-03-31T14:17:47.366Z,73.77
2023-03-31T14:23:12.407Z,74.24
2023-03-31T14:29:00.060Z,74.78
2023-03-31T14:35:05.207Z,75.04
2023-03-31T14:41:20.391Z,75.49
2023-03-31T14:46:23.594Z,75.86
2023-03-31T14:52:28.866Z,76.10
2023-03-31T14:58:34.555Z,76.48
2023-03-31T15:04:41.908Z,76.32
2023-03-31T15:10:40.135Z,76.10
2023-03-31T15:17:04.211Z,76.27
2023-03-31T15:23:11.892Z,75.72
2023-03-31T15:28:42.843Z,74.65
2023-03-31T15:34:37.151Z,74.18
2023-03-31T15:47:38.099Z,72.27
2023-03-31T15:53:14.242Z,71.60
2023-03-31T15:58:59.484Z,71.84
2023-03-31T16:04:06.473Z,70.84
2023-03-31T16:09:25.180Z,70.81
2023-03-31T16:14:50.751Z,70.37
2023-03-31T16:21:15.770Z,70.08
2023-03-31T16:27:50.475Z,69.90
2023-03-31T16:34:46.441Z,69.80
2023-03-31T16:40:21.801Z,70.01
2023-03-31T16:45:36.019Z,70.03
2023-03-31T16:51:29.801Z,70.00
2023-03-31T16:57:48.186Z,70.44
2023-03-31T17:03:43.412Z,70.75
2023-03-31T17:10:03.323Z,71.51
2023-03-31T17:15:52.094Z,71.52
2023-03-31T17:22:16.825Z,71.04
2023-03-31T17:27:41.674Z,69.52
2023-03-31T17:33:21.950Z,70.19
2023-03-31T17:39:38.988Z,70.81
2023-03-31T17:45:34.161Z,71.80
2023-03-31T17:50:49.075Z,72.46
2023-03-31T17:56:28.896Z,72.68
2023-03-31T18:01:37.925Z,72.93
2023-03-31T18:07:03.550Z,73.35
2023-03-31T18:12:59.330Z,73.60
2023-03-31T18:18:43.550Z,74.09
2023-03-31T18:23:54.583Z,74.20
2023-03-31T18:29:23.818Z,74.13
2023-03-31T18:35:22.078Z,73.90
2023-03-31T18:40:50.295Z,73.52
2023-03-31T18:46:45.314Z,74.16
2023-03-31T18:51:53.627Z,74.76
2023-03-31T18:57:34.285Z,74.93
2023-03-31T19:03:29.765Z,75.05
2023-03-31T19:08:56.595Z,74.80
2023-03-31T19:14:37.042Z,75.02
2023-03-31T19:19:48.268Z,75.13
2023-03-31T19:25:04.987Z,74.65
2023-03-31T19:30:44.401Z,74.77
2023-03-31T19:36:46.602Z,75.29
2023-03-31T19:43:08.141Z,75.87
2023-03-31T19:48:56.666Z,76.16
2023-03-31T19:53:58.694Z,75.99
2023-03-31T19:59:22.996Z,76.03
2023-03-31T20:04:45.446Z,76.12
2023-03-31T20:10:39.482Z,75.15
2023-03-31T20:15:41.371Z,74.14
2023-03-31T20:21:12.754Z,72.54
2023-03-31T20:26:35.422Z,71.62
2023-03-31T20:32:53.014Z,69.86
2023-03-31T20:39:13.619Z,69.23
2023-03-31T20:44:36.720Z,68.98
2023-03-31T20:49:41.657Z,68.58
2023-03-31T20:54:46.125Z,68.25
2023-03-31T21:00:14.308Z,68.18
2023-03-31T21:06:32.196Z,68.16
2023-03-31T21:12:57.015Z,67.84
2023-03-31T21:19:21.652Z,67.98
2023-03-31T21:25:43.249Z,68.14
2023-03-31T21:32:04.780Z,68.03
2023-03-31T21:38:32.071Z,67.93
2023-03-31T21:43:55.908Z,68.05
2023-03-31T21:55:41.076Z,68.17
2023-03-31T22:02:26.406Z,68.24
2023-03-31T22:09:09.138Z,68.52
2023-03-31T22:15:33.029Z,69.01
2023-03-31T22:21:43.147Z,69.18
2023-03-31T22:28:07.321Z,69.49
2023-03-31T22:33:49.807Z,69.98
2023-03-31T22:40:14.947Z,70.12
2023-03-31T22:46:31.422Z,70.48
2023-03-31T22:53:05.213Z,70.57
2023-03-31T22:58:37.854Z,70.92
2023-03-31T23:04:25.327Z,71.07
2023-03-31T23:11:06.337Z,71.26
2023-03-31T23:17:14.549Z,71.23
2023-03-31T23:24:00.472Z,71.37
2023-03-31T23:30:10.026Z,71.40
2023-03-31T23:35:54.934Z,71.59
2023-03-31T23:42:19.124Z,71.73
2023-03-31T23:48:37.092Z,71.96
2023-03-31T23:54:36.323Z,72.11
